»·PEaware :: N863VL KBUR-L65

N863VL :: KBUR-L65

FLIGHT INFORMATION

Flight Status: Arrived
Operator: Privately registered:
United States
More flights under this callsign
Pilot: Anonymous 10623 (10623)
Aircraft: BRITTEN NORMAN BN-2 ISLANDER DEFENDER
(BN2P)
More flights by this aircraft type
Origin: KBUR Bob Hope-Burbank
United States
Destination: L65 Perris Valley
United States
More flights between these airports :: More routes between these airports
Route: ELMOO9 ELMOO V186 PDZ
File this flight plan on PilotEdge
Remarks: TEC route BURP8
Altitude:
(Current/Filed)
5,000ft
Speed:
(Current/Filed)
155kts
Departed: 28-Sep-20 02:30 PM
Arrived: 28-Sep-20 03:02 PM
Distance/Time
Traveled:
63nm/0:32
Distance/Time
To Go:
Arrived

Flight Plot

Page will automatically refresh every two minutes.

Flight plan parsing failed; only flown route is shown


Map Options




Map Legend


Flown Route
Filed Route
Departure Airport
Arrival Airport
Navaid (VOR, NDB)
Fix

Horizontal Profiles

Position Reports

Time Latitude Longitude Heading Altitude Ground
Speed
28-Sep-20 14:08 34.203305 -118.360673 153 779ft 0kts
28-Sep-20 14:09 34.203305 -118.360673 153 779ft 0kts
28-Sep-20 14:10 34.203305 -118.360673 153 779ft 0kts
28-Sep-20 14:11 34.203305 -118.360673 153 779ft 0kts
28-Sep-20 14:12 34.203305 -118.360673 153 779ft 0kts
28-Sep-20 14:13 34.203302 -118.360672 154 779ft 0kts
28-Sep-20 14:14 34.203298 -118.360669 153 779ft 0kts
28-Sep-20 14:15 34.203295 -118.360667 153 779ft 0kts
28-Sep-20 14:16 34.203295 -118.360667 153 779ft 0kts
28-Sep-20 14:17 34.203295 -118.360667 153 779ft 0kts
28-Sep-20 14:18 34.203295 -118.360667 153 779ft 0kts
28-Sep-20 14:20 34.203254 -118.360623 123 779ft 2kts
28-Sep-20 14:21 34.203799 -118.359697 75 779ft 0kts
28-Sep-20 14:22 34.203862 -118.359440 68 779ft 2kts
28-Sep-20 14:23 34.207562 -118.360297 347 779ft 21kts
28-Sep-20 14:24 34.211859 -118.361341 105 779ft 0kts
28-Sep-20 14:25 34.211859 -118.361341 105 779ft 0kts
28-Sep-20 14:26 34.211858 -118.361338 103 779ft 0kts
28-Sep-20 14:27 34.211858 -118.361338 103 779ft 0kts
28-Sep-20 14:28 34.212119 -118.361007 57 779ft 5kts
28-Sep-20 14:29 34.212065 -118.360388 175 779ft 0kts
28-Sep-20 14:30 34.199163 -118.356775 167 1025ft 77kts
28-Sep-20 14:31 34.183320 -118.337213 126 1719ft 101kts
28-Sep-20 14:32 34.168799 -118.308601 118 2741ft 98kts
28-Sep-20 14:33 34.158154 -118.279484 116 3580ft 107kts
28-Sep-20 14:34 34.146886 -118.247734 114 4563ft 104kts
28-Sep-20 14:35 34.135117 -118.213895 109 5027ft 135kts
28-Sep-20 14:36 34.121131 -118.168436 108 5036ft 149kts
28-Sep-20 14:37 34.110041 -118.121609 108 5014ft 142kts
28-Sep-20 14:37 34.099506 -118.084215 111 5015ft 139kts
28-Sep-20 14:39 34.084146 -118.033993 111 5015ft 138kts
28-Sep-20 14:40 34.072137 -117.994951 110 5014ft 138kts
28-Sep-20 14:41 34.058062 -117.949247 110 5012ft 138kts
28-Sep-20 14:42 34.044619 -117.905624 109 5010ft 138kts
28-Sep-20 14:42 34.033340 -117.869062 109 5008ft 141kts
28-Sep-20 14:44 34.017104 -117.816627 109 5003ft 145kts
28-Sep-20 14:45 34.002975 -117.770982 108 5004ft 145kts
28-Sep-20 14:45 33.990312 -117.733127 111 5003ft 146kts
28-Sep-20 14:47 33.971765 -117.680972 114 5000ft 144kts
28-Sep-20 14:47 33.958714 -117.643956 115 5000ft 143kts
28-Sep-20 14:48 33.943122 -117.599764 115 4999ft 143kts
28-Sep-20 14:49 33.927540 -117.555665 115 4998ft 143kts
28-Sep-20 14:50 33.909758 -117.512851 124 4997ft 142kts
28-Sep-20 14:51 33.888841 -117.471146 118 5000ft 146kts
28-Sep-20 14:52 33.867478 -117.428941 119 4991ft 145kts
28-Sep-20 14:53 33.848309 -117.389460 117 4454ft 130kts
28-Sep-20 14:54 33.828694 -117.352054 121 3790ft 131kts
28-Sep-20 14:55 33.808885 -117.318474 121 3065ft 119kts
28-Sep-20 14:56 33.791062 -117.284245 120 2644ft 125kts
28-Sep-20 14:57 33.768753 -117.253513 159 2570ft 117kts
28-Sep-20 14:58 33.739115 -117.240273 163 2514ft 98kts
28-Sep-20 14:59 33.734742 -117.216472 59 1905ft 74kts
28-Sep-20 15:00 33.752276 -117.215228 340 1545ft 68kts
28-Sep-20 15:01 33.762826 -117.218424 337 1416ft 8kts
28-Sep-20 15:02 33.763418 -117.217472 273 1416ft 3kts
28-Sep-20 15:03 33.763418 -117.217488 273 1416ft 0kts

Navigation Log

Ident Type
Flight plan parsing failed, navigation log unavailable